EPGDEPKT

Guest
Details From EPGD - LECH WALESA
To EPKT - PYRZOWICE
Flight Number -
Tags generated
Created
Modified
Stats Distance 240 nm / 445 km
Max Altitude 29,000 ft / 8,839 m
Waypoints 4
Social Downloads 0
Likes 0
Share VATSIM

Download

Looking for another format? Having issues loading an existing format? Contact us
Advertisement - Login to hide

Notes

Basic altitude profile: - Ascent Rate: 2500ft/min - Ascent Speed: 250kts - Cruise Altitude: 26000ft - Cruise Speed: 420kts - Descent Rate: 1500ft/min - Descent Speed: 250kts Options: - Use NATs: yes - Use PACOTS: yes - Use low airways: yes - Use high airways: yes

Route

EPGD VAVEK N133 TITAK EPKT

ID Type Via Altitude Latitude Longitude Leg Dist Tot Dist Heading (true) Name
O EPGD APT - 0 ft / 0 m 54.37617˚ 18.47188˚ - 0 nm - LECH WALESA
VAVEK FIX - 29,000 ft / 8,839 m 52.69000˚ 19.21278˚ 104 nm 104 nm 165° / 166° -
TITAK FIX N133 (AWY-LO) 21,300 ft / 6,492 m 52.19167˚ 19.46333˚ 31 nm 135 nm 163° / 163° -
O EPKT APT - 0 ft / 0 m 50.47426˚ 19.07436˚ 104 nm 240 nm 188° / 188° PYRZOWICE

Altitude Profile

Advertisement - Login to hide

Weather


0- 5 10 15 20 25 30 35+ Temperature / ° C

Clouds and Precipitation
Forecast for 2017-12-17 12:00 UTC. Updated an hour ago

Ground ~20,000 ft ~40,000 ft Winds

EPGD

Details ICAO EPGD (GDN)
Name LECH WALESA
Region Poland
Timezone Europe/Warsaw (UTC+1.0)
Stats Elevation 489 ft / 149 m (AMSL)
Location 54.376167° 18.471884°
Runways 1
Magnetic Variation 5.452° E

METAR

EPGD 171230Z 28004KT 0250 R29/0350U FZFG VV001 M02/M02 Q1015

Decode

TAF

TAF AMD EPGD 171215Z 1712/1812 26005KT 3000 BR BKN004 TEMPO 1712/1809 0300 FZFG OVC001 PROB40 TEMPO 1713/1717 6000 SCT005 BECMG 1810/1812 6000 BKN007

Decode

Departure Runways

ID Width Length Bearing (true) Bearing (mag) Surface Threshold Offset Overrun Length
11 148 ft / 45 m 9,158 ft / 2,791 m 112.96° 107.51° Asphalt 0 ft / 0 m 0 ft / 0 m
29 148 ft / 45 m 9,158 ft / 2,791 m 293.00° 287.55° Asphalt 0 ft / 0 m 0 ft / 0 m

EPKT

Details ICAO EPKT (KTW)
Name PYRZOWICE
Region Poland
Timezone Europe/Warsaw (UTC+1.0)
Stats Elevation 995 ft / 303 m (AMSL)
Location 50.474263° 19.074356°
Runways 1
Magnetic Variation 5.086° E

METAR

EPKT 171230Z 24005KT 4800 BR FEW019 SCT025 BKN037 02/M01 Q1016

Decode

TAF

TAF EPKT 171130Z 1712/1812 22005KT 4000 BR BKN020 TEMPO 1712/1715 8000 TEMPO 1715/1812 2000 -SN BR BKN007 PROB40 1718/1809 1200 SN BR BKN002

Decode

Destination Runways

ID Width Length Bearing (true) Bearing (mag) Surface Threshold Offset Overrun Length
09 195 ft / 59 m 9,156 ft / 2,791 m 90.18° 85.09° Concrete 0 ft / 0 m 0 ft / 0 m
27 195 ft / 59 m 9,156 ft / 2,791 m 270.22° 265.13° Concrete 0 ft / 0 m 0 ft / 0 m

Approach Navaids

Runway Type Ident Frequency Range Bearing (true) Bearing (mag) Slope Elevation
27 Localiser KAT 109.90 MHz 18 nm / 33 km 270.18° 265.09° - 995 ft / 303 m (AMSL)
27 Glidescope KAT 109.90 MHz 10 nm / 19 km 270.20° 265.11° 3.20° 995 ft / 303 m (AMSL)

Popular Alternatives